createdAt,value
2018-03-30T00:00:45.940Z,3.60
2018-03-30T00:03:14.162Z,3.60
2018-03-30T00:05:42.470Z,3.60
2018-03-30T00:08:10.727Z,4.13
2018-03-30T00:10:44.580Z,3.90
2018-03-30T00:13:13.289Z,3.80
2018-03-30T00:15:41.600Z,3.70
2018-03-30T00:18:09.955Z,3.63
2018-03-30T00:20:40.104Z,3.67
2018-03-30T00:23:08.400Z,3.63
2018-03-30T00:25:36.659Z,3.67
2018-03-30T00:28:04.917Z,3.80
2018-03-30T00:30:33.418Z,4.17
2018-03-30T00:33:01.687Z,3.70
2018-03-30T00:35:30.027Z,3.97
2018-03-30T00:38:00.899Z,4.70
2018-03-30T00:40:29.185Z,4.30
2018-03-30T00:42:58.206Z,4.30
2018-03-30T00:45:26.686Z,4.00
2018-03-30T00:47:54.904Z,4.13
2018-03-30T00:50:23.399Z,3.80
2018-03-30T00:52:51.692Z,4.07
2018-03-30T00:55:19.950Z,4.27
2018-03-30T00:57:48.176Z,4.50
2018-03-30T01:00:16.410Z,4.20
2018-03-30T01:02:45.430Z,4.47
2018-03-30T01:05:13.670Z,4.30
2018-03-30T01:07:42.943Z,4.37
2018-03-30T01:10:11.228Z,3.83
2018-03-30T01:12:39.573Z,4.20
2018-03-30T01:15:09.733Z,4.40
2018-03-30T01:17:38.211Z,4.50
2018-03-30T01:20:07.207Z,4.77
2018-03-30T01:22:37.034Z,4.00
2018-03-30T01:25:05.535Z,4.93
2018-03-30T01:27:37.162Z,4.57
2018-03-30T01:30:05.788Z,4.40
2018-03-30T01:32:35.808Z,4.87
2018-03-30T01:35:04.144Z,4.40
2018-03-30T01:37:32.377Z,4.43
2018-03-30T01:40:00.610Z,4.10
2018-03-30T01:42:29.038Z,4.70
2018-03-30T01:44:57.376Z,4.90
2018-03-30T01:47:25.659Z,5.10
2018-03-30T01:49:54.740Z,5.17
2018-03-30T01:52:24.977Z,4.97
2018-03-30T01:54:57.368Z,5.07
2018-03-30T01:57:26.759Z,5.77
2018-03-30T01:59:55.069Z,5.70
2018-03-30T02:02:24.361Z,6.27
2018-03-30T02:04:52.726Z,5.60
2018-03-30T02:07:21.119Z,5.20
2018-03-30T02:09:52.165Z,5.27
2018-03-30T02:12:20.455Z,5.20
2018-03-30T02:14:48.830Z,5.30
2018-03-30T02:17:18.896Z,5.60
2018-03-30T02:19:47.232Z,6.20
2018-03-30T02:22:17.390Z,5.70
2018-03-30T02:24:47.451Z,6.47
2018-03-30T02:27:15.911Z,6.30
2018-03-30T02:29:44.935Z,6.37
2018-03-30T02:32:14.871Z,7.80
2018-03-30T02:34:44.017Z,6.70
2018-03-30T02:37:12.322Z,6.50
2018-03-30T02:39:40.619Z,7.50
2018-03-30T02:42:08.861Z,7.50
2018-03-30T02:44:37.982Z,7.83
2018-03-30T02:47:06.284Z,7.60
2018-03-30T02:49:34.577Z,7.70
2018-03-30T02:52:02.988Z,7.20
2018-03-30T02:54:32.884Z,7.27
2018-03-30T02:57:01.236Z,8.00
2018-03-30T02:59:29.521Z,7.40
2018-03-30T03:01:57.835Z,7.90
2018-03-30T03:04:26.115Z,7.40
2018-03-30T03:06:54.646Z,8.47
2018-03-30T03:09:23.042Z,8.30
2018-03-30T03:11:51.329Z,7.93
2018-03-30T03:14:19.796Z,7.60
2018-03-30T03:16:48.816Z,6.80
2018-03-30T03:19:17.879Z,8.67
2018-03-30T03:21:47.766Z,7.47
2018-03-30T03:24:16.065Z,7.97
2018-03-30T03:26:44.454Z,7.90
2018-03-30T03:29:12.818Z,8.50
2018-03-30T03:31:41.128Z,9.43
2018-03-30T03:34:12.254Z,8.40
2018-03-30T03:36:40.661Z,8.83
2018-03-30T03:39:08.925Z,8.40
2018-03-30T03:41:37.295Z,8.80
2018-03-30T03:44:05.672Z,8.43
2018-03-30T03:46:34.033Z,9.33
2018-03-30T03:49:04.033Z,9.50
2018-03-30T03:51:32.373Z,12.50
2018-03-30T03:54:00.745Z,10.63
2018-03-30T03:56:29.957Z,10.23
2018-03-30T03:58:58.310Z,10.88
2018-03-30T04:01:26.679Z,13.73
2018-03-30T04:03:55.029Z,13.50
2018-03-30T04:06:23.490Z,11.30
2018-03-30T04:08:51.767Z,12.48
2018-03-30T04:11:20.045Z,10.87
2018-03-30T04:13:49.147Z,10.13
2018-03-30T04:16:17.446Z,10.97
2018-03-30T04:18:45.821Z,9.97
2018-03-30T04:21:14.098Z,10.23
2018-03-30T04:23:42.375Z,10.30
2018-03-30T04:26:11.423Z,9.80
2018-03-30T04:28:39.729Z,12.98
2018-03-30T04:31:08.842Z,12.13
2018-03-30T04:33:38.845Z,11.17
2018-03-30T04:36:07.230Z,10.20
2018-03-30T04:38:35.504Z,11.30
2018-03-30T04:41:06.076Z,11.07
2018-03-30T04:43:39.563Z,10.47
2018-03-30T04:46:07.950Z,10.20
2018-03-30T04:48:37.141Z,11.77
2018-03-30T04:51:05.541Z,11.43
2018-03-30T04:53:34.629Z,10.87
2018-03-30T04:56:04.705Z,10.63
2018-03-30T04:58:35.023Z,11.87
2018-03-30T05:01:04.195Z,11.43
2018-03-30T05:03:32.557Z,11.97
2018-03-30T05:06:00.958Z,12.63
2018-03-30T05:08:30.875Z,11.73
2018-03-30T05:10:59.239Z,11.60
2018-03-30T05:13:29.229Z,11.07
2018-03-30T05:15:57.644Z,11.90
2018-03-30T05:18:26.041Z,11.53
2018-03-30T05:20:54.382Z,11.67
2018-03-30T05:23:23.597Z,12.57
2018-03-30T05:25:53.699Z,11.43
2018-03-30T05:28:23.685Z,11.67
2018-03-30T05:30:52.082Z,11.70
2018-03-30T05:33:22.109Z,12.60
2018-03-30T05:35:50.498Z,11.60
2018-03-30T05:38:18.839Z,12.50
2018-03-30T05:40:50.352Z,13.73
2018-03-30T05:43:19.449Z,14.53
2018-03-30T05:45:47.736Z,13.20
2018-03-30T05:48:17.823Z,12.23
2018-03-30T05:50:46.259Z,12.50
2018-03-30T05:53:14.706Z,12.43
2018-03-30T05:55:43.299Z,11.83
2018-03-30T05:58:11.630Z,11.70
2018-03-30T06:00:41.011Z,11.47
2018-03-30T06:03:09.293Z,11.93
2018-03-30T06:05:39.746Z,12.40
2018-03-30T06:08:10.553Z,12.27
2018-03-30T06:10:38.964Z,12.40
2018-03-30T06:13:09.099Z,12.77
2018-03-30T06:15:39.041Z,12.20
2018-03-30T06:18:09.171Z,11.73
2018-03-30T06:20:37.582Z,12.77
2018-03-30T06:23:06.091Z,12.20
2018-03-30T06:25:36.088Z,13.20
2018-03-30T06:28:07.401Z,18.50
2018-03-30T06:30:37.551Z,17.17
2018-03-30T06:33:07.923Z,20.47
2018-03-30T06:35:38.480Z,12.00
2018-03-30T06:38:08.643Z,13.20
2018-03-30T06:40:37.239Z,13.53
2018-03-30T06:43:05.585Z,13.70
2018-03-30T06:45:33.987Z,11.93
2018-03-30T06:48:04.929Z,12.40
2018-03-30T06:50:36.030Z,12.53
2018-03-30T06:53:06.105Z,13.10
2018-03-30T06:55:34.552Z,12.40
2018-03-30T06:58:02.869Z,12.20
2018-03-30T07:00:31.293Z,14.37
2018-03-30T07:03:01.643Z,12.40
2018-03-30T07:05:29.999Z,13.30
2018-03-30T07:08:00.385Z,12.67
2018-03-30T07:10:31.089Z,11.90
2018-03-30T07:12:59.482Z,12.57
2018-03-30T07:15:27.831Z,13.60
2018-03-30T07:17:56.199Z,12.90
2018-03-30T07:20:26.343Z,13.53
2018-03-30T07:22:56.461Z,12.30
2018-03-30T07:25:25.700Z,12.10
2018-03-30T07:27:54.192Z,12.67
2018-03-30T07:30:22.564Z,12.70
2018-03-30T07:32:51.007Z,13.10
2018-03-30T07:35:19.385Z,12.20
2018-03-30T07:37:47.770Z,11.70
2018-03-30T07:40:16.156Z,12.03
2018-03-30T07:42:44.709Z,16.00
2018-03-30T07:45:13.057Z,12.57
2018-03-30T07:47:41.445Z,11.73
2018-03-30T07:50:09.781Z,12.30
2018-03-30T07:52:40.834Z,12.07
2018-03-30T07:55:09.228Z,12.27
2018-03-30T07:57:41.529Z,12.33
2018-03-30T08:00:09.805Z,12.10
2018-03-30T08:02:38.232Z,11.27
2018-03-30T08:05:09.634Z,11.70
2018-03-30T08:07:38.129Z,10.87
2018-03-30T08:10:06.604Z,11.67
2018-03-30T08:12:38.452Z,9.60
2018-03-30T08:15:06.833Z,10.20
2018-03-30T08:17:36.452Z,9.30
2018-03-30T08:20:04.894Z,10.43
2018-03-30T08:22:33.339Z,9.20
2018-03-30T08:25:03.588Z,9.20
2018-03-30T08:27:34.333Z,9.97
2018-03-30T08:30:02.697Z,9.20
2018-03-30T08:32:31.782Z,8.97
2018-03-30T08:35:00.142Z,8.47
2018-03-30T08:37:28.637Z,7.93
2018-03-30T08:39:56.976Z,6.80
2018-03-30T08:42:28.021Z,7.13
2018-03-30T08:44:56.431Z,7.40
2018-03-30T08:47:24.783Z,6.87
2018-03-30T08:49:53.104Z,7.10
2018-03-30T08:52:21.424Z,6.57
2018-03-30T08:54:49.831Z,6.50
2018-03-30T08:57:18.227Z,5.33
2018-03-30T08:59:46.592Z,5.13
2018-03-30T09:02:17.581Z,5.73
2018-03-30T09:04:46.175Z,5.20
2018-03-30T09:07:15.257Z,4.90
2018-03-30T09:09:49.444Z,5.00
2018-03-30T09:12:20.885Z,5.30
2018-03-30T09:14:51.229Z,4.67
2018-03-30T09:17:23.227Z,6.10
2018-03-30T09:19:53.270Z,6.70
2018-03-30T09:22:21.673Z,4.97
2018-03-30T09:24:50.134Z,5.43
2018-03-30T09:27:18.603Z,5.50
2018-03-30T09:29:55.192Z,5.10
2018-03-30T09:32:25.357Z,5.03
2018-03-30T09:34:56.173Z,4.20
2018-03-30T09:37:24.518Z,4.63
2018-03-30T09:39:55.813Z,4.73
2018-03-30T09:42:25.270Z,5.10
2018-03-30T09:44:53.630Z,4.83
2018-03-30T09:47:23.075Z,5.17
2018-03-30T09:49:51.449Z,5.50
2018-03-30T09:52:19.852Z,4.63
2018-03-30T09:54:49.832Z,5.07
2018-03-30T09:57:18.220Z,5.73
2018-03-30T09:59:48.307Z,5.40
2018-03-30T10:02:16.999Z,5.40
2018-03-30T10:04:46.074Z,5.70
2018-03-30T10:07:14.372Z,4.30
2018-03-30T10:09:42.715Z,5.03
2018-03-30T10:12:11.785Z,4.57
2018-03-30T10:14:43.241Z,4.40
2018-03-30T10:17:11.584Z,5.13
2018-03-30T10:19:41.274Z,4.77
2018-03-30T10:22:09.740Z,5.00
2018-03-30T10:24:38.179Z,4.77
2018-03-30T10:27:06.520Z,4.33
2018-03-30T10:29:34.868Z,4.13
2018-03-30T10:32:03.578Z,3.87
2018-03-30T10:34:31.939Z,4.30
2018-03-30T10:37:00.433Z,4.33
2018-03-30T10:39:29.747Z,4.60
2018-03-30T10:42:00.210Z,5.10
2018-03-30T10:44:29.534Z,5.90
2018-03-30T10:46:58.007Z,3.93
2018-03-30T10:49:26.392Z,5.10
2018-03-30T10:51:54.699Z,4.60
2018-03-30T10:54:23.002Z,4.70
2018-03-30T10:56:54.426Z,4.20
2018-03-30T10:59:22.731Z,4.93
2018-03-30T11:01:53.903Z,5.80
2018-03-30T11:04:22.425Z,4.20
2018-03-30T11:06:50.701Z,4.47
2018-03-30T11:09:19.042Z,4.30
2018-03-30T11:11:47.395Z,5.33
2018-03-30T11:14:17.404Z,5.07
2018-03-30T11:16:45.739Z,4.07
2018-03-30T11:19:14.096Z,4.20
2018-03-30T11:21:42.434Z,4.00
2018-03-30T11:24:10.754Z,4.53
2018-03-30T11:26:39.120Z,4.13
2018-03-30T11:29:07.405Z,5.57
2018-03-30T11:31:35.944Z,4.37
2018-03-30T11:34:04.379Z,3.60
2018-03-30T11:36:35.472Z,4.50
2018-03-30T11:39:03.912Z,3.77
2018-03-30T11:41:33.051Z,3.87
2018-03-30T11:44:01.419Z,3.40
2018-03-30T11:46:29.782Z,3.40
2018-03-30T11:49:00.815Z,3.30
2018-03-30T11:51:29.156Z,3.80
2018-03-30T11:53:57.547Z,3.27
2018-03-30T11:56:27.625Z,3.17
2018-03-30T11:58:56.064Z,3.07
2018-03-30T12:01:24.373Z,3.20
2018-03-30T12:03:52.688Z,2.90
2018-03-30T12:06:22.187Z,2.47
2018-03-30T12:08:50.531Z,2.50
2018-03-30T12:11:19.623Z,2.40
2018-03-30T12:13:47.970Z,2.40
2018-03-30T12:16:16.294Z,2.57
2018-03-30T12:18:45.361Z,2.10
2018-03-30T12:21:13.795Z,2.30
2018-03-30T12:23:42.961Z,1.70
2018-03-30T12:26:11.293Z,2.23
2018-03-30T12:28:39.779Z,2.57
2018-03-30T12:31:08.557Z,1.10
2018-03-30T12:33:36.897Z,1.33
2018-03-30T12:36:05.217Z,1.30
2018-03-30T12:38:33.570Z,1.30
2018-03-30T12:41:01.988Z,0.83
2018-03-30T12:43:30.269Z,0.90
2018-03-30T12:45:58.711Z,1.43
2018-03-30T12:48:27.707Z,1.67
2018-03-30T12:50:57.782Z,0.87
2018-03-30T12:53:26.474Z,1.20
2018-03-30T12:55:56.122Z,1.10
2018-03-30T12:58:24.654Z,1.30
2018-03-30T13:00:53.282Z,1.07
2018-03-30T13:03:21.641Z,1.07
2018-03-30T13:05:52.025Z,1.10
2018-03-30T13:08:23.474Z,1.10
2018-03-30T13:10:51.832Z,1.20
2018-03-30T13:13:20.166Z,1.83
2018-03-30T13:15:48.506Z,1.73
2018-03-30T13:18:17.728Z,1.10
2018-03-30T13:20:46.020Z,1.10
2018-03-30T13:23:14.359Z,1.20
2018-03-30T13:25:42.837Z,1.27
2018-03-30T13:28:11.196Z,1.50
2018-03-30T13:30:44.044Z,2.03
2018-03-30T13:33:12.421Z,2.50
2018-03-30T13:35:40.827Z,2.37
2018-03-30T13:38:09.143Z,2.47
2018-03-30T13:40:37.469Z,2.20
2018-03-30T13:43:06.178Z,2.97
2018-03-30T13:45:35.278Z,2.30
2018-03-30T13:48:03.788Z,2.20
2018-03-30T13:50:34.051Z,2.00
2018-03-30T13:53:13.715Z,2.27
2018-03-30T13:55:42.048Z,1.63
2018-03-30T13:58:13.358Z,2.70
2018-03-30T14:00:43.110Z,1.93
2018-03-30T14:03:18.198Z,2.20
2018-03-30T14:05:52.990Z,2.33
2018-03-30T14:08:27.301Z,1.77
2018-03-30T14:11:05.752Z,2.47
2018-03-30T14:13:34.863Z,2.67
2018-03-30T14:16:08.586Z,1.80
2018-03-30T14:18:45.509Z,1.47
2018-03-30T14:21:18.455Z,1.60
2018-03-30T14:23:47.656Z,1.50
2018-03-30T14:29:19.466Z,1.30
2018-03-30T14:31:50.890Z,1.47
2018-03-30T14:34:21.542Z,1.50
2018-03-30T14:36:59.967Z,1.30
2018-03-30T14:39:32.754Z,1.30
2018-03-30T14:42:01.094Z,1.27
2018-03-30T14:44:44.503Z,1.47
2018-03-30T14:47:28.402Z,1.17
2018-03-30T14:50:03.707Z,1.10
2018-03-30T15:06:36.796Z,1.47
2018-03-30T15:09:11.820Z,1.83
2018-03-30T15:25:29.789Z,2.63
2018-03-30T15:27:59.580Z,3.67
2018-03-30T15:30:37.621Z,2.57
2018-03-30T15:33:09.742Z,3.33
2018-03-30T15:36:02.133Z,2.43
2018-03-30T15:38:53.837Z,3.08
2018-03-30T15:41:46.271Z,2.85
2018-03-30T15:44:39.063Z,2.50
2018-03-30T15:47:31.492Z,2.90
2018-03-30T15:50:22.763Z,2.60
2018-03-30T15:53:14.030Z,2.70
2018-03-30T15:56:06.557Z,2.73
2018-03-30T15:58:58.291Z,3.60
2018-03-30T16:01:48.775Z,3.30
2018-03-30T16:04:40.012Z,5.13
2018-03-30T16:07:31.716Z,2.50
2018-03-30T16:10:32.191Z,2.70
2018-03-30T16:13:24.511Z,5.77
2018-03-30T16:16:15.184Z,4.77
2018-03-30T16:19:08.460Z,2.43
2018-03-30T16:21:54.686Z,2.40
2018-03-30T16:24:42.076Z,2.23
2018-03-30T16:27:28.269Z,5.10
2018-03-30T16:30:14.453Z,2.37
2018-03-30T16:33:00.585Z,2.73
2018-03-30T16:35:46.363Z,2.80
2018-03-30T16:38:32.562Z,2.50
2018-03-30T16:41:19.044Z,2.83
2018-03-30T16:44:05.211Z,3.20
2018-03-30T16:46:51.475Z,3.60
2018-03-30T16:49:37.680Z,3.20
2018-03-30T16:52:23.846Z,2.70
2018-03-30T16:55:10.061Z,2.93
2018-03-30T16:57:56.271Z,2.73
2018-03-30T17:00:43.516Z,3.23
2018-03-30T17:03:29.305Z,4.37
2018-03-30T17:06:15.508Z,2.97
2018-03-30T17:09:01.679Z,3.07
2018-03-30T17:11:47.944Z,2.90
2018-03-30T17:14:33.705Z,2.83
2018-03-30T17:17:19.859Z,3.17
2018-03-30T17:20:06.039Z,2.80
2018-03-30T17:22:52.217Z,2.20
2018-03-30T17:25:38.465Z,2.37
2018-03-30T17:28:24.613Z,2.37
2018-03-30T17:31:10.870Z,2.20
2018-03-30T17:33:57.064Z,1.90
2018-03-30T17:36:43.276Z,1.90
2018-03-30T17:39:29.398Z,2.00
2018-03-30T17:42:15.580Z,2.80
2018-03-30T17:45:01.733Z,2.73
2018-03-30T17:47:47.978Z,2.33
2018-03-30T17:50:33.908Z,2.20
2018-03-30T17:53:20.187Z,2.20
2018-03-30T17:56:06.367Z,2.30
2018-03-30T17:58:52.714Z,2.20
2018-03-30T18:01:39.925Z,1.97
2018-03-30T18:04:28.750Z,2.20
2018-03-30T18:07:14.948Z,2.40
2018-03-30T18:10:01.180Z,2.37
2018-03-30T18:12:47.349Z,3.27
2018-03-30T18:15:34.245Z,2.20
2018-03-30T18:18:20.414Z,2.20
2018-03-30T18:21:06.743Z,2.40
2018-03-30T18:23:52.639Z,2.40
2018-03-30T18:26:38.874Z,2.93
2018-03-30T18:29:25.005Z,4.67
2018-03-30T18:32:12.194Z,2.20
2018-03-30T18:34:58.022Z,2.50
2018-03-30T18:37:44.015Z,2.60
2018-03-30T18:40:30.306Z,3.77
2018-03-30T18:43:16.189Z,5.43
2018-03-30T18:46:02.311Z,3.40
2018-03-30T18:48:48.483Z,3.87
2018-03-30T18:51:34.186Z,3.17
2018-03-30T18:54:20.390Z,2.93
2018-03-30T18:57:06.867Z,3.10
2018-03-30T18:59:53.094Z,3.40
2018-03-30T19:02:38.811Z,3.10
2018-03-30T19:05:24.615Z,2.90
2018-03-30T19:08:10.885Z,3.50
2018-03-30T19:10:57.206Z,3.40
2018-03-30T19:13:42.962Z,3.47
2018-03-30T19:16:30.779Z,3.40
2018-03-30T19:19:19.444Z,3.27
2018-03-30T19:22:06.127Z,3.30
2018-03-30T19:24:52.398Z,3.87
2018-03-30T19:27:38.644Z,3.30
2018-03-30T19:30:24.848Z,3.17
2018-03-30T19:33:11.185Z,4.30
2018-03-30T19:35:57.917Z,4.80
2018-03-30T19:38:45.714Z,3.27
2018-03-30T19:41:31.960Z,3.77
2018-03-30T19:44:18.199Z,3.17
2018-03-30T19:47:04.949Z,3.53
2018-03-30T19:49:51.333Z,3.80
2018-03-30T19:52:37.314Z,4.10
2018-03-30T19:55:23.357Z,4.20
2018-03-30T19:58:09.683Z,4.23
2018-03-30T20:00:58.180Z,4.37
2018-03-30T20:03:44.512Z,5.97
2018-03-30T20:06:30.372Z,4.33
2018-03-30T20:09:16.342Z,5.13
2018-03-30T20:12:02.622Z,4.47
2018-03-30T20:14:48.920Z,4.00
2018-03-30T20:17:35.306Z,3.73
2018-03-30T20:20:21.158Z,5.00
2018-03-30T20:23:08.541Z,5.93
2018-03-30T20:25:55.006Z,4.60
2018-03-30T20:28:41.201Z,4.40
2018-03-30T20:31:27.400Z,4.70
2018-03-30T20:34:13.689Z,4.97
2018-03-30T20:36:59.490Z,5.00
2018-03-30T20:39:45.829Z,5.47
2018-03-30T20:42:32.057Z,5.93
2018-03-30T20:45:18.485Z,5.60
2018-03-30T20:48:04.433Z,6.03
2018-03-30T20:50:50.821Z,5.23
2018-03-30T20:53:36.852Z,4.43
2018-03-30T20:56:23.184Z,4.90
2018-03-30T20:59:09.224Z,4.80
2018-03-30T21:01:55.443Z,5.23
2018-03-30T21:04:41.774Z,5.43
2018-03-30T21:07:28.406Z,4.90
2018-03-30T21:10:14.656Z,4.70
2018-03-30T21:13:00.865Z,4.43
2018-03-30T21:15:47.114Z,5.80
2018-03-30T21:18:32.894Z,5.60
2018-03-30T21:21:19.165Z,4.60
2018-03-30T21:24:05.448Z,6.50
2018-03-30T21:26:51.125Z,6.30
2018-03-30T21:29:37.475Z,6.10
2018-03-30T21:32:23.304Z,5.63
2018-03-30T21:35:10.557Z,6.00
2018-03-30T21:37:57.456Z,5.60
2018-03-30T21:40:43.716Z,5.60
2018-03-30T21:43:29.943Z,5.63
2018-03-30T21:46:16.212Z,5.30
2018-03-30T21:49:02.345Z,5.30
2018-03-30T21:51:48.401Z,5.17
2018-03-30T21:54:35.723Z,5.40
2018-03-30T21:57:21.988Z,4.80
2018-03-30T22:00:07.950Z,5.13
2018-03-30T22:02:54.131Z,5.17
2018-03-30T22:05:40.156Z,5.03
2018-03-30T22:08:26.560Z,4.80
2018-03-30T22:11:12.395Z,5.30
2018-03-30T22:13:58.718Z,5.13
2018-03-30T22:16:44.867Z,5.47
2018-03-30T22:19:31.168Z,5.80
2018-03-30T22:22:16.924Z,5.20
2018-03-30T22:25:03.101Z,5.77
2018-03-30T22:27:49.278Z,6.10
2018-03-30T22:30:35.488Z,6.77
2018-03-30T22:33:21.630Z,6.70
2018-03-30T22:36:07.905Z,6.90
2018-03-30T22:38:54.103Z,6.63
2018-03-30T22:41:39.932Z,6.87
2018-03-30T22:44:25.672Z,7.23
2018-03-30T22:47:11.919Z,7.10
2018-03-30T22:49:59.341Z,7.43
2018-03-30T22:52:45.538Z,8.20
2018-03-30T22:55:31.766Z,7.80
2018-03-30T22:58:18.138Z,8.20
2018-03-30T23:01:04.464Z,7.63
2018-03-30T23:03:51.212Z,7.60
2018-03-30T23:06:38.461Z,7.90
2018-03-30T23:09:24.754Z,8.30
2018-03-30T23:12:11.426Z,7.90
2018-03-30T23:14:57.231Z,8.57
2018-03-30T23:17:44.398Z,7.93
2018-03-30T23:20:30.154Z,8.80
2018-03-30T23:23:16.402Z,8.20
2018-03-30T23:26:02.359Z,8.00
2018-03-30T23:28:48.053Z,8.20
2018-03-30T23:31:34.324Z,8.20
2018-03-30T23:34:20.486Z,7.83
2018-03-30T23:37:06.728Z,8.53
2018-03-30T23:39:52.914Z,8.30
2018-03-30T23:42:39.223Z,8.53
2018-03-30T23:45:25.452Z,8.40
2018-03-30T23:48:11.729Z,8.10
2018-03-30T23:50:57.843Z,7.87
2018-03-30T23:53:44.085Z,8.60
2018-03-30T23:56:30.258Z,7.80
2018-03-30T23:59:16.424Z,8.23
